This is the latest recevied weather packets stored in our database for station/object KW6V-15. If no packets are shown the sender has not sent any weather packets the latest 10 day(s).
| Time | Temp. | Humidity | Pressure | Rain* | Wind** | Luminosity | Snow |
|---|---|---|---|---|---|---|---|
| 1778124636 | 11.67° C | 88% | 1020.5 hPa | 0 mm | - | - | - |
| 1778122828 | 11.67° C | 87% | 1020.4 hPa | 0 mm | - | - | - |
| 1778121016 | 12.22° C | 86% | 1020.3 hPa | 0 mm | - | - | - |
| 1778119232 | 12.78° C | 85% | 1020.4 hPa | 0 mm | - | - | - |
| 1778117432 | 13.33° C | 84% | 1020.5 hPa | 0 mm | - | - | - |
| 1778115654 | 13.89° C | 82% | 1020.5 hPa | 0 mm | - | - | - |
| 1778113824 | 14.44° C | 81% | 1020.6 hPa | 0 mm | - | - | - |
| 1778112039 | 15° C | 81% | 1020.5 hPa | 0 mm | - | - | - |
| 1778110230 | 15.56° C | 79% | 1020.5 hPa | 0 mm | - | - | - |
| 1778108444 | 16.11° C | 79% | 1020.6 hPa | 0 mm | - | - | - |
| 1778106624 | 15.56° C | 81% | 1021 hPa | 0 mm | - | - | - |
| 1778104829 | 16.67° C | 78% | 1021.1 hPa | 0 mm | - | - | - |
| 1778103020 | 16.11° C | 78% | 1021.3 hPa | 0 mm | - | - | - |
| 1778101281 | 17.78° C | 76% | 1021.2 hPa | 0 mm | - | - | - |
| 1778099416 | 17.78° C | 76% | 1021.2 hPa | 0 mm | - | - | - |
| 1778097650 | 17.22° C | 77% | 1021.5 hPa | 0 mm | - | - | - |
| 1778095873 | 17.22° C | 79% | 1021.5 hPa | 0 mm | - | - | - |
| 1778094045 | 16.11° C | 80% | 1021.6 hPa | 0 mm | - | - | - |
| 1778092224 | 15.56° C | 82% | 1021.5 hPa | 0 mm | - | - | - |
| 1778090420 | 15° C | 85% | 1021.4 hPa | 0 mm | - | - | - |
| 1778088635 | 13.33° C | 85% | 1021.5 hPa | 0 mm | - | - | - |
| 1778086869 | 13.33° C | 86% | 1021.3 hPa | 0 mm | - | - | - |
| 1778085018 | 12.78° C | 88% | 1021.4 hPa | 0 mm | - | - | - |
| 1778083258 | 12.22° C | 89% | 1021.3 hPa | 0 mm | - | - | - |
| 1778081457 | 12.22° C | 91% | 1021.2 hPa | 0 mm | - | - | - |
* Rain latest hour (hover to see other rain measurements)
** Current wind speed in m/s (hover to see current wind gust speed)